createdAt,value
2023-04-26T00:00:46.347Z,3.58
2023-04-26T00:03:14.631Z,3.60
2023-04-26T00:05:42.861Z,4.28
2023-04-26T00:08:10.742Z,3.60
2023-04-26T00:10:40.694Z,4.18
2023-04-26T00:13:08.584Z,3.35
2023-04-26T00:15:37.153Z,3.80
2023-04-26T00:18:05.108Z,3.42
2023-04-26T00:20:32.989Z,3.50
2023-04-26T00:23:00.810Z,4.35
2023-04-26T00:25:28.667Z,4.07
2023-04-26T00:27:56.833Z,3.88
2023-04-26T00:30:24.606Z,3.50
2023-04-26T00:32:52.555Z,4.45
2023-04-26T00:35:20.835Z,3.92
2023-04-26T00:37:48.680Z,4.40
2023-04-26T00:40:17.057Z,4.00
2023-04-26T00:42:46.701Z,4.28
2023-04-26T00:45:14.622Z,3.83
2023-04-26T00:47:42.671Z,3.63
2023-04-26T00:50:11.178Z,4.32
2023-04-26T00:52:39.674Z,4.00
2023-04-26T00:55:08.789Z,3.87
2023-04-26T00:57:37.112Z,3.57
2023-04-26T01:00:05.641Z,3.70
2023-04-26T01:02:33.555Z,4.03
2023-04-26T01:05:01.478Z,3.33
2023-04-26T01:07:29.502Z,3.50
2023-04-26T01:09:59.993Z,3.97
2023-04-26T01:12:29.962Z,3.57
2023-04-26T01:14:59.190Z,3.33
2023-04-26T01:17:27.094Z,3.90
2023-04-26T01:19:58.096Z,3.30
2023-04-26T01:22:25.968Z,4.20
2023-04-26T01:24:56.486Z,3.20
2023-04-26T01:27:24.458Z,3.33
2023-04-26T01:29:52.671Z,3.70
2023-04-26T01:32:20.666Z,3.80
2023-04-26T01:34:48.419Z,4.00
2023-04-26T01:37:16.275Z,3.40
2023-04-26T01:39:44.031Z,3.72
2023-04-26T01:42:12.921Z,3.17
2023-04-26T01:44:40.681Z,3.70
2023-04-26T01:47:08.434Z,3.60
2023-04-26T01:49:36.368Z,3.83
2023-04-26T01:52:04.323Z,2.90
2023-04-26T01:54:32.135Z,3.67
2023-04-26T01:57:02.444Z,3.83
2023-04-26T01:59:30.366Z,4.05
2023-04-26T02:02:00.023Z,3.72
2023-04-26T02:04:28.418Z,3.47
2023-04-26T02:06:57.118Z,3.97
2023-04-26T02:09:25.256Z,3.95
2023-04-26T02:11:53.030Z,3.90
2023-04-26T02:14:20.891Z,3.80
2023-04-26T02:16:51.766Z,3.80
2023-04-26T02:19:21.064Z,4.22
2023-04-26T02:21:54.127Z,4.17
2023-04-26T02:24:23.252Z,3.80
2023-04-26T02:26:52.343Z,3.63
2023-04-26T02:29:29.384Z,3.47
2023-04-26T02:32:08.631Z,3.90
2023-04-26T02:34:36.793Z,3.80
2023-04-26T02:37:04.863Z,4.00
2023-04-26T02:39:33.793Z,3.87
2023-04-26T02:42:01.621Z,4.20
2023-04-26T02:44:32.693Z,4.60
2023-04-26T02:47:00.620Z,4.30
2023-04-26T02:49:29.199Z,4.50
2023-04-26T02:51:57.041Z,3.63
2023-04-26T02:54:25.875Z,3.53
2023-04-26T02:56:55.291Z,3.90
2023-04-26T02:59:23.091Z,4.73
2023-04-26T03:01:51.240Z,4.77
2023-04-26T03:04:19.490Z,3.87
2023-04-26T03:06:47.475Z,4.17
2023-04-26T03:09:15.427Z,4.10
2023-04-26T03:11:43.367Z,4.23
2023-04-26T03:14:11.882Z,4.03
2023-04-26T03:16:44.283Z,4.50
2023-04-26T03:19:12.300Z,3.73
2023-04-26T03:21:41.467Z,4.50
2023-04-26T03:24:09.376Z,4.57
2023-04-26T03:26:37.175Z,4.30
2023-04-26T03:29:07.610Z,3.63
2023-04-26T03:31:35.586Z,4.57
2023-04-26T03:34:03.849Z,4.23
2023-04-26T03:36:31.710Z,4.13
2023-04-26T03:38:59.592Z,4.20
2023-04-26T03:41:27.413Z,4.90
2023-04-26T03:43:56.832Z,4.60
2023-04-26T03:46:25.057Z,4.20
2023-04-26T03:48:53.370Z,4.80
2023-04-26T03:51:21.576Z,4.33
2023-04-26T03:53:49.420Z,4.87
2023-04-26T03:56:17.245Z,5.17
2023-04-26T03:58:45.170Z,4.37
2023-04-26T04:01:13.227Z,4.97
2023-04-26T04:03:41.915Z,4.80
2023-04-26T04:06:10.326Z,6.10
2023-04-26T04:08:38.238Z,5.63
2023-04-26T04:11:06.640Z,5.10
2023-04-26T04:13:37.696Z,4.90
2023-04-26T04:16:06.924Z,5.77
2023-04-26T04:18:35.004Z,5.23
2023-04-26T04:21:03.351Z,6.07
2023-04-26T04:23:31.186Z,6.07
2023-04-26T04:26:00.168Z,5.40
2023-04-26T04:28:29.913Z,5.07
2023-04-26T04:30:58.182Z,4.90
2023-04-26T04:33:28.453Z,5.35
2023-04-26T04:35:57.181Z,5.97
2023-04-26T04:38:25.551Z,5.17
2023-04-26T04:40:53.775Z,6.10
2023-04-26T04:43:21.785Z,5.67
2023-04-26T04:45:49.863Z,6.13
2023-04-26T04:48:18.618Z,5.63
2023-04-26T04:50:47.408Z,5.88
2023-04-26T04:53:15.218Z,5.45
2023-04-26T04:55:43.019Z,5.32
2023-04-26T04:58:14.816Z,5.78
2023-04-26T05:00:43.327Z,5.68
2023-04-26T05:03:18.729Z,5.60
2023-04-26T05:05:46.727Z,5.38
2023-04-26T05:08:14.526Z,4.65
2023-04-26T05:10:42.418Z,5.38
2023-04-26T05:13:11.439Z,5.30
2023-04-26T05:15:40.132Z,5.45
2023-04-26T05:18:08.787Z,5.18
2023-04-26T05:20:36.828Z,5.45
2023-04-26T05:23:04.672Z,4.88
2023-04-26T05:25:36.283Z,5.07
2023-04-26T05:28:15.302Z,5.20
2023-04-26T05:31:04.176Z,5.50
2023-04-26T05:33:50.393Z,5.32
2023-04-26T05:36:29.945Z,5.18
2023-04-26T05:38:58.847Z,5.25
2023-04-26T05:41:27.046Z,5.40
2023-04-26T05:43:55.553Z,5.65
2023-04-26T05:46:23.588Z,5.25
2023-04-26T05:48:51.957Z,4.80
2023-04-26T05:51:20.709Z,4.53
2023-04-26T05:53:48.493Z,5.15
2023-04-26T05:56:16.494Z,4.85
2023-04-26T05:58:44.913Z,4.65
2023-04-26T06:01:14.168Z,4.65
2023-04-26T06:03:42.771Z,4.68
2023-04-26T06:06:11.165Z,5.18
2023-04-26T06:08:42.593Z,4.30
2023-04-26T06:11:11.987Z,4.57
2023-04-26T06:13:39.897Z,4.60
2023-04-26T06:16:09.610Z,5.00
2023-04-26T06:18:37.512Z,4.63
2023-04-26T06:21:05.544Z,4.18
2023-04-26T06:23:33.480Z,4.25
2023-04-26T06:26:01.668Z,4.13
2023-04-26T06:28:29.864Z,4.20
2023-04-26T06:30:58.345Z,3.70
2023-04-26T06:33:26.780Z,3.50
2023-04-26T06:35:54.663Z,2.88
2023-04-26T06:38:22.489Z,4.03
2023-04-26T06:40:50.291Z,3.17
2023-04-26T06:43:18.534Z,3.30
2023-04-26T06:45:54.634Z,3.38
2023-04-26T06:48:22.569Z,3.38
2023-04-26T06:50:50.533Z,3.35
2023-04-26T06:53:18.452Z,3.67
2023-04-26T06:55:46.618Z,3.10
2023-04-26T06:58:14.442Z,3.55
2023-04-26T07:00:42.348Z,2.92
2023-04-26T07:03:10.318Z,3.13
2023-04-26T07:05:40.690Z,3.42
2023-04-26T07:08:08.671Z,3.60
2023-04-26T07:10:37.952Z,3.45
2023-04-26T07:13:07.932Z,3.63
2023-04-26T07:15:37.318Z,2.95
2023-04-26T07:18:06.332Z,2.80
2023-04-26T07:20:34.362Z,2.90
2023-04-26T07:23:02.198Z,2.88
2023-04-26T07:25:30.001Z,2.50
2023-04-26T07:27:57.881Z,2.70
2023-04-26T07:30:26.742Z,2.58
2023-04-26T07:32:54.679Z,2.05
2023-04-26T07:35:22.523Z,1.90
2023-04-26T07:37:50.959Z,2.30
2023-04-26T07:40:19.889Z,1.67
2023-04-26T07:42:47.746Z,1.80
2023-04-26T07:45:15.914Z,1.92
2023-04-26T07:47:45.086Z,1.73
2023-04-26T07:50:13.065Z,1.70
2023-04-26T07:52:40.962Z,2.10
2023-04-26T07:55:09.418Z,1.90
2023-04-26T07:57:37.822Z,2.30
2023-04-26T08:00:10.268Z,2.20
2023-04-26T08:02:45.047Z,1.80
2023-04-26T08:05:14.597Z,1.95
2023-04-26T08:07:44.934Z,2.25
2023-04-26T08:10:12.827Z,1.90
2023-04-26T08:12:40.839Z,1.70
2023-04-26T08:15:09.227Z,1.90
2023-04-26T08:17:37.533Z,1.90
2023-04-26T08:20:06.254Z,1.90
2023-04-26T08:22:34.142Z,1.65
2023-04-26T08:25:02.079Z,1.92
2023-04-26T08:27:31.911Z,1.60
2023-04-26T08:29:59.877Z,1.60
2023-04-26T08:32:27.673Z,1.50
2023-04-26T08:34:55.594Z,1.90
2023-04-26T08:37:23.484Z,1.65
2023-04-26T08:39:51.316Z,1.98
2023-04-26T08:42:20.953Z,1.60
2023-04-26T08:44:49.319Z,1.65
2023-04-26T08:47:22.626Z,1.92
2023-04-26T08:50:00.924Z,1.70
2023-04-26T08:52:31.418Z,1.55
2023-04-26T08:55:00.618Z,2.33
2023-04-26T08:57:30.490Z,1.60
2023-04-26T08:59:58.526Z,1.30
2023-04-26T09:02:26.596Z,1.48
2023-04-26T09:04:54.791Z,1.70
2023-04-26T09:07:31.000Z,1.40
2023-04-26T09:09:59.860Z,1.30
2023-04-26T09:12:28.054Z,1.63
2023-04-26T09:14:56.592Z,1.52
2023-04-26T09:17:31.037Z,1.60
2023-04-26T09:20:01.189Z,1.83
2023-04-26T09:22:34.648Z,1.67
2023-04-26T09:25:04.159Z,1.73
2023-04-26T09:27:36.015Z,1.40
2023-04-26T09:30:10.500Z,1.30
2023-04-26T09:32:45.448Z,1.30
2023-04-26T09:38:12.674Z,1.63
2023-04-26T09:40:42.849Z,2.00
2023-04-26T09:43:19.283Z,1.45
2023-04-26T09:45:55.687Z,1.40
2023-04-26T09:48:30.439Z,1.50
2023-04-26T09:53:37.235Z,1.40
2023-04-26T09:56:18.947Z,1.50
2023-04-26T09:59:01.270Z,1.20
2023-04-26T10:01:32.662Z,1.42
2023-04-26T10:04:04.672Z,1.40
2023-04-26T10:06:33.182Z,1.48
2023-04-26T10:09:04.445Z,1.35
2023-04-26T10:11:34.420Z,1.80
2023-04-26T10:14:02.435Z,1.40
2023-04-26T10:16:30.871Z,1.50
2023-04-26T10:18:59.906Z,1.55
2023-04-26T10:21:31.940Z,1.42
2023-04-26T10:24:01.176Z,1.40
2023-04-26T10:26:56.755Z,1.70
2023-04-26T10:32:04.552Z,1.50
2023-04-26T10:34:34.908Z,1.65
2023-04-26T10:37:16.939Z,1.70
2023-04-26T10:39:46.426Z,1.42
2023-04-26T10:42:30.804Z,1.50
2023-04-26T10:44:59.856Z,1.57
2023-04-26T10:47:33.943Z,1.90
2023-04-26T10:50:08.004Z,1.83
2023-04-26T10:53:04.717Z,1.80
2023-04-26T10:55:42.991Z,2.25
2023-04-26T10:58:31.806Z,1.75
2023-04-26T11:01:17.516Z,1.60
2023-04-26T11:04:09.243Z,1.60
2023-04-26T11:06:51.212Z,1.58
2023-04-26T11:09:36.262Z,1.83
2023-04-26T11:12:12.239Z,1.67
2023-04-26T11:14:44.496Z,1.83
2023-04-26T11:17:13.272Z,1.70
2023-04-26T11:19:49.930Z,2.00
2023-04-26T11:22:21.917Z,1.73
2023-04-26T11:24:50.830Z,1.85
2023-04-26T11:27:18.672Z,1.90
2023-04-26T11:29:46.554Z,1.70
2023-04-26T11:32:14.586Z,1.45
2023-04-26T11:34:42.395Z,1.80
2023-04-26T11:37:11.628Z,2.30
2023-04-26T11:39:39.535Z,1.83
2023-04-26T11:42:12.362Z,1.70
2023-04-26T11:44:41.605Z,2.00
2023-04-26T11:47:10.142Z,1.67
2023-04-26T11:49:38.700Z,1.88
2023-04-26T11:52:08.137Z,2.00
2023-04-26T11:54:38.078Z,1.67
2023-04-26T11:57:17.782Z,1.95
2023-04-26T11:59:46.283Z,2.20
2023-04-26T12:02:14.353Z,2.28
2023-04-26T12:04:44.328Z,2.00
2023-04-26T12:07:12.313Z,2.10
2023-04-26T12:09:44.467Z,2.30
2023-04-26T12:12:12.444Z,1.80
2023-04-26T12:14:41.358Z,2.05
2023-04-26T12:17:10.407Z,2.05
2023-04-26T12:19:39.932Z,1.80
2023-04-26T12:22:08.835Z,1.60
2023-04-26T12:24:37.414Z,2.10
2023-04-26T12:27:09.506Z,1.67
2023-04-26T12:29:37.541Z,2.10
2023-04-26T12:32:05.807Z,1.80
2023-04-26T12:34:33.690Z,2.20
2023-04-26T12:37:01.571Z,1.80
2023-04-26T12:39:29.893Z,2.05
2023-04-26T12:41:57.789Z,1.92
2023-04-26T12:44:26.292Z,2.20
2023-04-26T12:46:54.138Z,1.95
2023-04-26T12:49:23.255Z,1.85
2023-04-26T12:51:51.116Z,1.60
2023-04-26T12:54:19.091Z,1.80
2023-04-26T12:56:48.219Z,1.77
2023-04-26T12:59:16.354Z,1.75
2023-04-26T13:01:44.354Z,1.95
2023-04-26T13:04:12.418Z,1.63
2023-04-26T13:06:40.765Z,1.88
2023-04-26T13:09:09.054Z,1.85
2023-04-26T13:11:37.018Z,1.55
2023-04-26T13:14:06.876Z,1.75
2023-04-26T13:16:34.902Z,1.77
2023-04-26T13:19:02.963Z,1.75
2023-04-26T13:21:31.033Z,1.83
2023-04-26T13:23:58.915Z,1.90
2023-04-26T13:26:28.009Z,1.95
2023-04-26T13:28:56.130Z,1.70
2023-04-26T13:31:24.976Z,1.70
2023-04-26T13:33:53.016Z,1.80
2023-04-26T13:36:21.122Z,1.55
2023-04-26T13:38:49.116Z,1.70
2023-04-26T13:41:17.260Z,1.92
2023-04-26T13:43:45.578Z,1.70
2023-04-26T13:46:13.788Z,1.73
2023-04-26T13:48:42.170Z,1.73
2023-04-26T13:51:11.685Z,1.70
2023-04-26T13:53:39.828Z,1.42
2023-04-26T13:56:09.464Z,1.92
2023-04-26T13:58:37.442Z,1.30
2023-04-26T14:01:05.546Z,1.48
2023-04-26T14:03:33.822Z,1.40
2023-04-26T14:06:03.547Z,1.40
2023-04-26T14:08:31.867Z,1.60
2023-04-26T14:10:59.942Z,1.73
2023-04-26T14:13:27.821Z,2.40
2023-04-26T14:15:55.863Z,2.33
2023-04-26T14:18:23.842Z,2.40
2023-04-26T14:20:52.121Z,2.20
2023-04-26T14:23:20.024Z,2.28
2023-04-26T14:25:52.470Z,2.10
2023-04-26T14:28:20.953Z,2.20
2023-04-26T14:30:48.861Z,2.20
2023-04-26T14:33:16.948Z,1.95
2023-04-26T14:35:44.889Z,2.20
2023-04-26T14:38:12.801Z,2.75
2023-04-26T14:40:42.125Z,1.02
2023-04-26T14:43:10.057Z,2.40
2023-04-26T14:48:12.444Z,1.95
2023-04-26T14:50:40.852Z,2.03
2023-04-26T14:53:09.688Z,2.10
2023-04-26T14:55:37.778Z,2.20
2023-04-26T14:58:05.862Z,2.03
2023-04-26T15:00:33.760Z,2.03
2023-04-26T15:03:02.070Z,2.08
2023-04-26T15:05:30.025Z,2.45
2023-04-26T15:07:58.078Z,2.05
2023-04-26T15:10:26.136Z,2.08
2023-04-26T15:12:54.032Z,1.73
2023-04-26T15:15:22.669Z,2.00
2023-04-26T15:17:50.818Z,1.60
2023-04-26T15:20:19.083Z,1.52
2023-04-26T15:22:47.124Z,1.65
2023-04-26T15:25:15.219Z,2.00
2023-04-26T15:27:43.069Z,1.70
2023-04-26T15:30:11.452Z,1.50
2023-04-26T15:32:39.576Z,1.75
2023-04-26T15:35:07.886Z,1.98
2023-04-26T15:37:38.080Z,2.03
2023-04-26T15:40:06.823Z,1.85
2023-04-26T15:42:37.417Z,1.73
2023-04-26T15:45:05.945Z,1.90
2023-04-26T15:47:36.743Z,1.83
2023-04-26T15:50:06.305Z,3.35
2023-04-26T15:52:38.539Z,1.95
2023-04-26T15:55:08.062Z,1.90
2023-04-26T15:57:36.419Z,2.00
2023-04-26T16:00:08.209Z,2.00
2023-04-26T16:02:36.915Z,1.95
2023-04-26T16:05:07.238Z,2.30
2023-04-26T16:07:35.803Z,1.45
2023-04-26T16:10:04.934Z,2.10
2023-04-26T16:12:32.924Z,1.77
2023-04-26T16:15:01.373Z,1.88
2023-04-26T16:17:29.285Z,2.28
2023-04-26T16:19:57.363Z,2.00
2023-04-26T16:22:25.428Z,1.92
2023-04-26T16:24:54.129Z,2.03
2023-04-26T16:27:22.339Z,3.05
2023-04-26T16:29:50.381Z,2.72
2023-04-26T16:32:18.334Z,1.98
2023-04-26T16:34:46.281Z,2.38
2023-04-26T16:37:14.739Z,1.88
2023-04-26T16:39:42.895Z,1.90
2023-04-26T16:42:11.237Z,2.40
2023-04-26T16:44:40.311Z,2.28
2023-04-26T16:47:08.222Z,1.90
2023-04-26T16:49:36.155Z,1.88
2023-04-26T16:52:04.081Z,2.00
2023-04-26T16:54:32.106Z,2.22
2023-04-26T16:57:00.201Z,2.85
2023-04-26T16:59:28.273Z,1.90
2023-04-26T17:01:56.477Z,2.30
2023-04-26T17:04:24.952Z,2.10
2023-04-26T17:06:53.631Z,2.30
2023-04-26T17:09:21.679Z,1.70
2023-04-26T17:11:49.984Z,2.20
2023-04-26T17:14:17.901Z,2.35
2023-04-26T17:16:46.010Z,2.25
2023-04-26T17:19:14.252Z,2.40
2023-04-26T17:21:42.151Z,2.33
2023-04-26T17:24:15.427Z,1.60
2023-04-26T17:26:43.693Z,1.98
2023-04-26T17:29:11.838Z,2.20
2023-04-26T17:31:40.930Z,2.20
2023-04-26T17:34:08.952Z,2.30
2023-04-26T17:36:37.156Z,2.38
2023-04-26T17:39:05.228Z,1.65
2023-04-26T17:41:33.366Z,2.08
2023-04-26T17:44:02.490Z,2.10
2023-04-26T17:46:34.850Z,2.92
2023-04-26T17:49:04.020Z,2.38
2023-04-26T17:51:33.168Z,2.08
2023-04-26T17:54:02.483Z,2.50
2023-04-26T17:56:30.495Z,2.13
2023-04-26T17:58:58.458Z,2.40
2023-04-26T18:01:26.572Z,2.13
2023-04-26T18:03:54.625Z,1.98
2023-04-26T18:06:22.694Z,2.10
2023-04-26T18:08:50.603Z,2.42
2023-04-26T18:11:20.871Z,2.15
2023-04-26T18:13:49.240Z,3.42
2023-04-26T18:16:17.393Z,2.97
2023-04-26T18:18:45.422Z,2.08
2023-04-26T18:21:13.701Z,1.75
2023-04-26T18:23:42.227Z,2.20
2023-04-26T18:26:10.115Z,2.47
2023-04-26T18:28:38.127Z,1.88
2023-04-26T18:31:08.078Z,2.00
2023-04-26T18:33:36.018Z,1.70
2023-04-26T18:36:04.608Z,1.92
2023-04-26T18:38:32.791Z,1.75
2023-04-26T18:41:00.706Z,2.08
2023-04-26T18:43:28.626Z,1.75
2023-04-26T18:45:56.585Z,2.00
2023-04-26T18:48:24.542Z,2.05
2023-04-26T18:50:54.052Z,1.90
2023-04-26T18:53:23.567Z,2.30
2023-04-26T18:55:55.843Z,2.05
2023-04-26T18:58:23.892Z,2.33
2023-04-26T19:00:53.491Z,2.20
2023-04-26T19:03:21.997Z,2.22
2023-04-26T19:05:50.218Z,2.50
2023-04-26T19:08:18.400Z,2.40
2023-04-26T19:10:46.273Z,2.30
2023-04-26T19:13:14.232Z,2.33
2023-04-26T19:15:43.169Z,2.00
2023-04-26T19:18:11.317Z,1.90
2023-04-26T19:20:39.196Z,1.27
2023-04-26T19:23:07.528Z,2.20
2023-04-26T19:25:35.625Z,2.40
2023-04-26T19:28:04.430Z,2.42
2023-04-26T19:30:32.387Z,2.05
2023-04-26T19:33:00.464Z,2.22
2023-04-26T19:35:28.520Z,1.92
2023-04-26T19:37:56.480Z,2.05
2023-04-26T19:40:24.392Z,2.50
2023-04-26T19:42:52.375Z,2.25
2023-04-26T19:45:20.680Z,2.80
2023-04-26T19:47:48.756Z,3.17
2023-04-26T19:50:16.736Z,3.03
2023-04-26T19:52:44.950Z,2.70
2023-04-26T19:55:12.907Z,3.08
2023-04-26T19:57:41.141Z,2.97
2023-04-26T20:00:11.621Z,3.13
2023-04-26T20:02:39.696Z,4.93
2023-04-26T20:05:09.301Z,4.88
2023-04-26T20:07:37.362Z,7.15
2023-04-26T20:10:05.826Z,4.97
2023-04-26T20:12:34.142Z,3.15
2023-04-26T20:15:02.141Z,3.30
2023-04-26T20:17:30.167Z,3.45
2023-04-26T20:19:57.932Z,3.38
2023-04-26T20:22:25.749Z,2.85
2023-04-26T20:24:53.563Z,3.10
2023-04-26T20:27:21.508Z,4.05
2023-04-26T20:29:49.450Z,3.85
2023-04-26T20:32:17.871Z,3.75
2023-04-26T20:34:45.895Z,4.05
2023-04-26T20:37:13.791Z,3.72
2023-04-26T20:39:42.785Z,3.72
2023-04-26T20:42:11.062Z,3.80
2023-04-26T20:44:40.393Z,3.72
2023-04-26T20:47:09.044Z,4.07
2023-04-26T20:49:37.119Z,4.43
2023-04-26T20:52:05.435Z,10.27
2023-04-26T20:54:33.740Z,7.43
2023-04-26T20:57:02.274Z,5.57
2023-04-26T20:59:30.784Z,4.72
2023-04-26T21:01:58.672Z,4.28
2023-04-26T21:04:27.061Z,3.92
2023-04-26T21:06:55.121Z,3.88
2023-04-26T21:09:23.023Z,3.72
2023-04-26T21:11:53.336Z,3.58
2023-04-26T21:14:21.407Z,4.40
2023-04-26T21:16:49.384Z,3.80
2023-04-26T21:19:17.182Z,4.18
2023-04-26T21:21:45.115Z,4.28
2023-04-26T21:24:13.159Z,4.97
2023-04-26T21:26:41.246Z,4.53
2023-04-26T21:29:09.432Z,5.45
2023-04-26T21:31:37.496Z,7.05
2023-04-26T21:34:05.490Z,8.68
2023-04-26T21:36:33.570Z,9.55
2023-04-26T21:39:01.742Z,9.75
2023-04-26T21:41:29.719Z,10.15
2023-04-26T21:43:58.711Z,9.38
2023-04-26T21:46:26.838Z,8.68
2023-04-26T21:48:54.834Z,7.53
2023-04-26T21:51:22.930Z,6.40
2023-04-26T21:53:50.870Z,6.07
2023-04-26T21:56:18.760Z,6.07
2023-04-26T21:58:46.666Z,5.30
2023-04-26T22:01:16.686Z,5.65
2023-04-26T22:03:44.947Z,5.28
2023-04-26T22:06:12.997Z,5.20
2023-04-26T22:08:41.339Z,5.25
2023-04-26T22:11:09.250Z,5.53
2023-04-26T22:13:38.289Z,4.80
2023-04-26T22:16:06.726Z,5.07
2023-04-26T22:18:35.468Z,5.43
2023-04-26T22:21:03.455Z,4.57
2023-04-26T22:23:31.460Z,4.80
2023-04-26T22:26:00.569Z,5.53
2023-04-26T22:28:28.439Z,4.82
2023-04-26T22:30:56.353Z,4.90
2023-04-26T22:33:24.140Z,5.47
2023-04-26T22:35:54.159Z,4.72
2023-04-26T22:38:21.936Z,5.20
2023-04-26T22:40:49.854Z,4.60
2023-04-26T22:43:17.877Z,4.60
2023-04-26T22:45:45.885Z,4.65
2023-04-26T22:48:14.013Z,4.80
2023-04-26T22:50:42.063Z,4.57
2023-04-26T22:53:09.936Z,4.93
2023-04-26T22:55:37.854Z,4.82
2023-04-26T22:58:05.761Z,4.55
2023-04-26T23:00:33.746Z,5.35
2023-04-26T23:03:01.610Z,5.00
2023-04-26T23:05:29.585Z,5.13
2023-04-26T23:07:57.447Z,4.50
2023-04-26T23:10:25.500Z,4.75
2023-04-26T23:12:53.611Z,4.70
2023-04-26T23:15:21.516Z,5.15
2023-04-26T23:17:49.450Z,4.72
2023-04-26T23:20:17.595Z,4.65
2023-04-26T23:22:45.593Z,5.13
2023-04-26T23:25:13.560Z,5.60
2023-04-26T23:27:41.501Z,5.20
2023-04-26T23:30:09.786Z,5.07
2023-04-26T23:32:37.688Z,5.15
2023-04-26T23:35:06.568Z,4.20
2023-04-26T23:37:34.737Z,4.30
2023-04-26T23:40:04.023Z,4.05
2023-04-26T23:42:31.873Z,4.00
2023-04-26T23:44:59.860Z,4.30
2023-04-26T23:47:27.857Z,4.25
2023-04-26T23:49:55.895Z,4.15
2023-04-26T23:52:23.675Z,4.50
2023-04-26T23:54:52.638Z,4.60
2023-04-26T23:57:20.507Z,4.50
2023-04-26T23:59:48.406Z,4.60
